createdAt,value
2022-11-08T00:01:38.823Z,8.30
2022-11-08T00:04:21.461Z,8.30
2022-11-08T00:07:07.353Z,8.20
2022-11-08T00:09:53.298Z,8.30
2022-11-08T00:12:39.458Z,8.20
2022-11-08T00:15:11.664Z,8.30
2022-11-08T00:17:38.886Z,8.30
2022-11-08T00:20:07.257Z,8.40
2022-11-08T00:22:37.175Z,8.30
2022-11-08T00:25:11.166Z,8.30
2022-11-08T00:27:38.116Z,8.30
2022-11-08T00:30:05.604Z,8.30
2022-11-08T00:32:34.063Z,8.30
2022-11-08T00:35:01.521Z,8.30
2022-11-08T00:37:28.661Z,8.30
2022-11-08T00:39:55.612Z,8.30
2022-11-08T00:42:22.748Z,8.30
2022-11-08T00:44:49.648Z,8.30
2022-11-08T00:47:16.955Z,8.30
2022-11-08T00:49:43.921Z,8.30
2022-11-08T00:52:10.988Z,8.40
2022-11-08T00:54:37.943Z,8.40
2022-11-08T00:57:04.887Z,8.40
2022-11-08T00:59:31.878Z,8.40
2022-11-08T01:01:59.296Z,8.40
2022-11-08T01:04:26.512Z,8.30
2022-11-08T01:06:53.489Z,8.30
2022-11-08T01:09:20.480Z,8.30
2022-11-08T01:11:50.358Z,8.30
2022-11-08T01:14:17.684Z,8.40
2022-11-08T01:16:49.740Z,8.40
2022-11-08T01:19:17.964Z,8.40
2022-11-08T01:21:47.341Z,8.40
2022-11-08T01:24:14.316Z,8.40
2022-11-08T01:26:41.260Z,8.40
2022-11-08T01:29:10.415Z,8.50
2022-11-08T01:31:37.877Z,8.50
2022-11-08T01:34:05.913Z,8.50
2022-11-08T01:36:34.821Z,8.50
2022-11-08T01:39:02.981Z,8.50
2022-11-08T01:41:31.191Z,8.50
2022-11-08T01:44:00.590Z,8.60
2022-11-08T01:46:46.489Z,8.50
2022-11-08T01:49:33.146Z,8.60
2022-11-08T01:52:12.267Z,8.50
2022-11-08T01:54:54.202Z,8.60
2022-11-08T01:57:35.729Z,8.50
2022-11-08T02:00:08.539Z,8.50
2022-11-08T02:02:37.001Z,8.50
2022-11-08T02:05:06.913Z,8.60
2022-11-08T02:07:34.595Z,8.50
2022-11-08T02:10:03.066Z,8.50
2022-11-08T02:12:30.649Z,8.50
2022-11-08T02:14:57.560Z,8.50
2022-11-08T02:17:33.779Z,8.50
2022-11-08T02:20:00.893Z,8.50
2022-11-08T02:22:38.704Z,8.60
2022-11-08T02:25:06.847Z,8.50
2022-11-08T02:27:33.866Z,8.50
2022-11-08T02:30:00.922Z,8.60
2022-11-08T02:32:41.663Z,8.60
2022-11-08T02:35:18.823Z,8.60
2022-11-08T02:37:47.160Z,8.70
2022-11-08T02:40:14.326Z,8.60
2022-11-08T02:42:42.002Z,8.60
2022-11-08T02:45:10.418Z,8.60
2022-11-08T02:47:37.589Z,8.50
2022-11-08T02:50:07.759Z,8.60
2022-11-08T02:52:35.208Z,8.50
2022-11-08T02:55:02.336Z,8.60
2022-11-08T02:57:29.567Z,8.60
2022-11-08T02:59:56.684Z,8.60
2022-11-08T03:02:23.726Z,8.60
2022-11-08T03:04:53.550Z,8.60
2022-11-08T03:07:24.716Z,8.60
2022-11-08T03:09:52.275Z,8.60
2022-11-08T03:12:20.415Z,8.70
2022-11-08T03:14:49.915Z,8.70
2022-11-08T03:17:16.945Z,8.70
2022-11-08T03:19:45.553Z,8.70
2022-11-08T03:22:12.667Z,8.70
2022-11-08T03:24:39.827Z,8.60
2022-11-08T03:27:06.909Z,8.70
2022-11-08T03:29:33.945Z,8.70
2022-11-08T03:32:00.964Z,8.70
2022-11-08T03:34:27.944Z,8.70
2022-11-08T03:36:54.972Z,8.70
2022-11-08T03:39:21.913Z,8.70
2022-11-08T03:41:48.955Z,8.80
2022-11-08T03:44:16.050Z,8.80
2022-11-08T03:46:42.945Z,8.80
2022-11-08T03:49:10.143Z,8.80
2022-11-08T03:51:37.293Z,8.80
2022-11-08T03:54:08.186Z,8.70
2022-11-08T03:56:35.386Z,8.70
2022-11-08T03:59:02.739Z,8.70
2022-11-08T04:01:30.033Z,8.70
2022-11-08T04:03:57.348Z,8.70
2022-11-08T04:06:24.805Z,8.70
2022-11-08T04:08:51.954Z,8.70
2022-11-08T04:11:41.842Z,8.70
2022-11-08T04:14:28.431Z,8.80
2022-11-08T04:16:56.827Z,8.80
2022-11-08T04:19:43.285Z,8.70
2022-11-08T04:22:11.900Z,8.70
2022-11-08T04:24:39.146Z,8.80
2022-11-08T04:27:06.114Z,8.80
2022-11-08T04:29:33.468Z,8.70
2022-11-08T04:32:00.583Z,8.70
2022-11-08T04:34:27.904Z,8.70
2022-11-08T04:36:57.985Z,8.60
2022-11-08T04:39:25.072Z,8.60
2022-11-08T04:41:53.762Z,8.70
2022-11-08T04:44:23.502Z,8.70
2022-11-08T04:46:50.593Z,8.60
2022-11-08T04:49:17.490Z,8.60
2022-11-08T04:51:44.455Z,8.60
2022-11-08T04:54:11.947Z,8.60
2022-11-08T04:56:38.929Z,8.50
2022-11-08T04:59:11.704Z,8.50
2022-11-08T05:01:39.420Z,8.40
2022-11-08T05:04:06.625Z,8.40
2022-11-08T05:06:33.810Z,8.40
2022-11-08T05:09:01.191Z,8.30
2022-11-08T05:11:30.045Z,8.30
2022-11-08T05:13:57.803Z,8.30
2022-11-08T05:16:30.625Z,8.20
2022-11-08T05:18:58.562Z,8.20
2022-11-08T05:21:44.401Z,8.10
2022-11-08T05:24:13.696Z,8.10
2022-11-08T05:26:42.648Z,8.10
2022-11-08T05:29:09.736Z,8.10
2022-11-08T05:31:36.980Z,8.10
2022-11-08T05:34:07.718Z,7.90
2022-11-08T05:36:34.960Z,8.00
2022-11-08T05:39:02.030Z,7.90
2022-11-08T05:41:29.809Z,7.90
2022-11-08T05:43:56.885Z,7.90
2022-11-08T05:46:23.969Z,8.00
2022-11-08T05:48:53.554Z,7.90
2022-11-08T05:51:21.047Z,7.90
2022-11-08T05:56:35.621Z,7.80
2022-11-08T05:59:02.665Z,7.80
2022-11-08T06:01:29.738Z,7.80
2022-11-08T06:03:56.750Z,7.80
2022-11-08T06:06:23.756Z,7.70
2022-11-08T06:08:52.092Z,7.80
2022-11-08T06:11:23.626Z,7.70
2022-11-08T06:13:52.106Z,7.70
2022-11-08T06:16:20.181Z,7.70
2022-11-08T06:18:47.626Z,7.80
2022-11-08T06:21:16.717Z,7.80
2022-11-08T06:23:43.903Z,7.80
2022-11-08T06:26:11.239Z,7.80
2022-11-08T06:28:38.613Z,7.80
2022-11-08T06:31:05.873Z,7.90
2022-11-08T06:33:32.946Z,7.90
2022-11-08T06:36:00.215Z,7.90
2022-11-08T06:38:27.060Z,7.90
2022-11-08T06:40:54.028Z,7.90
2022-11-08T06:43:21.258Z,8.00
2022-11-08T06:45:48.322Z,8.20
2022-11-08T06:48:15.404Z,8.20
2022-11-08T06:50:43.073Z,8.30
2022-11-08T06:53:13.202Z,8.50
2022-11-08T06:55:40.554Z,8.60
2022-11-08T06:58:07.755Z,8.70
2022-11-08T07:00:34.602Z,8.80
2022-11-08T07:03:04.555Z,8.80
2022-11-08T07:05:33.456Z,8.80
2022-11-08T07:08:01.135Z,8.80
2022-11-08T07:10:31.345Z,8.90
2022-11-08T07:13:11.532Z,8.90
2022-11-08T07:15:38.977Z,8.90
2022-11-08T07:18:08.320Z,8.90
2022-11-08T07:20:35.837Z,8.90
2022-11-08T07:23:05.912Z,8.90
2022-11-08T07:25:33.302Z,8.90
2022-11-08T07:28:05.664Z,8.80
2022-11-08T07:30:33.292Z,9.00
2022-11-08T07:33:00.156Z,9.50
2022-11-08T07:35:28.237Z,9.90
2022-11-08T07:37:55.698Z,10.10
2022-11-08T07:40:22.869Z,10.20
2022-11-08T07:43:10.790Z,10.10
2022-11-08T07:45:36.570Z,10.50
2022-11-08T07:48:11.543Z,10.90
2022-11-08T07:50:42.944Z,11.20
2022-11-08T07:53:10.434Z,11.20
2022-11-08T07:55:38.536Z,11.20
2022-11-08T07:58:06.111Z,11.20
2022-11-08T08:00:36.595Z,11.50
2022-11-08T08:03:05.756Z,11.70
2022-11-08T08:05:37.750Z,11.70
2022-11-08T08:08:05.525Z,11.90
2022-11-08T08:10:33.066Z,11.80
2022-11-08T08:13:00.517Z,11.90
2022-11-08T08:15:27.629Z,12.10
2022-11-08T08:17:54.680Z,12.30
2022-11-08T08:20:21.768Z,12.50
2022-11-08T08:22:50.762Z,12.50
2022-11-08T08:25:19.215Z,12.40
2022-11-08T08:27:53.986Z,12.60
2022-11-08T08:30:21.869Z,12.60
2022-11-08T08:33:02.130Z,12.50
2022-11-08T08:35:37.066Z,12.40
2022-11-08T08:38:05.600Z,12.40
2022-11-08T08:40:33.181Z,12.20
2022-11-08T08:43:01.181Z,12.20
2022-11-08T08:45:28.627Z,12.30
2022-11-08T08:47:57.032Z,12.20
2022-11-08T08:50:24.897Z,12.20
2022-11-08T08:52:51.872Z,12.20
2022-11-08T08:55:18.952Z,12.20
2022-11-08T08:57:49.430Z,12.10
2022-11-08T09:03:05.708Z,12.00
2022-11-08T09:05:33.804Z,12.20
2022-11-08T09:08:01.768Z,12.10
2022-11-08T09:10:28.806Z,12.10
2022-11-08T09:12:56.120Z,12.10
2022-11-08T09:15:23.235Z,12.30
2022-11-08T09:17:50.172Z,12.20
2022-11-08T09:20:17.275Z,12.30
2022-11-08T09:22:44.097Z,12.30
2022-11-08T09:25:10.975Z,12.40
2022-11-08T09:27:37.966Z,12.60
2022-11-08T09:30:06.217Z,12.60
2022-11-08T09:32:59.155Z,12.60
2022-11-08T09:35:20.483Z,12.70
2022-11-08T09:37:49.742Z,12.70
2022-11-08T09:40:33.055Z,12.90
2022-11-08T09:43:15.442Z,13.00
2022-11-08T09:45:46.559Z,13.00
2022-11-08T09:48:32.068Z,13.10
2022-11-08T09:51:05.609Z,13.20
2022-11-08T09:53:38.474Z,13.50
2022-11-08T09:56:07.742Z,13.70
2022-11-08T09:58:50.637Z,13.80
2022-11-08T10:01:19.595Z,14.00
2022-11-08T10:03:54.164Z,14.10
2022-11-08T10:07:09.934Z,14.20
2022-11-08T10:09:58.119Z,14.20
2022-11-08T10:12:51.017Z,14.40
2022-11-08T10:15:29.624Z,14.50
2022-11-08T10:18:13.103Z,14.60
2022-11-08T10:21:05.186Z,14.60
2022-11-08T10:23:31.907Z,14.40
2022-11-08T10:26:10.135Z,14.30
2022-11-08T10:28:51.485Z,14.40
2022-11-08T10:31:20.957Z,14.30
2022-11-08T10:33:50.548Z,14.30
2022-11-08T10:36:26.259Z,14.40
2022-11-08T10:39:08.982Z,14.40
2022-11-08T10:41:38.795Z,14.30
2022-11-08T10:44:11.682Z,14.40
2022-11-08T10:46:48.273Z,14.40
2022-11-08T10:49:26.021Z,14.60
2022-11-08T10:51:59.186Z,14.60
2022-11-08T10:54:55.512Z,14.70
2022-11-08T10:57:28.358Z,14.70
2022-11-08T10:59:56.727Z,14.70
2022-11-08T11:02:33.206Z,14.70
2022-11-08T11:05:16.327Z,14.60
2022-11-08T11:08:04.910Z,14.50
2022-11-08T11:10:37.586Z,14.60
2022-11-08T11:13:15.136Z,14.70
2022-11-08T11:15:46.644Z,14.70
2022-11-08T11:18:30.856Z,14.70
2022-11-08T11:21:07.973Z,14.90
2022-11-08T11:23:42.353Z,15.30
2022-11-08T11:26:19.416Z,15.90
2022-11-08T11:29:04.770Z,16.50
2022-11-08T11:31:37.518Z,17.20
2022-11-08T11:34:19.743Z,17.50
2022-11-08T11:37:09.001Z,18.10
2022-11-08T11:39:51.986Z,19.40
2022-11-08T11:42:52.536Z,20.40
2022-11-08T11:45:33.279Z,20.80
2022-11-08T11:48:12.607Z,21.20
2022-11-08T11:50:41.669Z,21.20
2022-11-08T11:53:16.868Z,21.00
2022-11-08T11:55:59.109Z,21.40
2022-11-08T11:58:48.530Z,20.90
2022-11-08T12:01:45.647Z,21.00
2022-11-08T12:04:54.012Z,20.70
2022-11-08T12:07:33.128Z,21.30
2022-11-08T12:10:22.205Z,21.90
2022-11-08T12:13:13.260Z,21.80
2022-11-08T12:15:52.610Z,21.20
2022-11-08T12:18:52.608Z,20.90
2022-11-08T12:21:46.293Z,20.20
2022-11-08T12:24:41.566Z,19.80
2022-11-08T12:27:54.987Z,18.80
2022-11-08T12:30:30.628Z,17.70
2022-11-08T12:33:18.272Z,17.50
2022-11-08T12:35:59.021Z,17.30
2022-11-08T12:38:37.920Z,17.50
2022-11-08T12:41:13.556Z,17.80
2022-11-08T12:43:58.624Z,18.10
2022-11-08T12:46:26.363Z,18.20
2022-11-08T12:49:20.704Z,18.60
2022-11-08T12:51:47.923Z,18.90
2022-11-08T12:54:20.357Z,18.90
2022-11-08T12:56:49.770Z,18.90
2022-11-08T12:59:31.873Z,18.70
2022-11-08T13:01:59.343Z,18.60
2022-11-08T13:04:43.543Z,18.40
2022-11-08T13:07:45.549Z,18.30
2022-11-08T13:10:18.548Z,18.20
2022-11-08T13:13:15.278Z,18.10
2022-11-08T13:16:16.054Z,17.60
2022-11-08T13:19:14.912Z,17.50
2022-11-08T13:21:43.179Z,17.60
2022-11-08T13:24:38.397Z,17.80
2022-11-08T13:27:21.874Z,17.90
2022-11-08T13:29:49.130Z,18.20
2022-11-08T13:32:32.557Z,18.20
2022-11-08T13:35:12.526Z,18.30
2022-11-08T13:37:59.188Z,18.00
2022-11-08T13:40:32.320Z,17.60
2022-11-08T13:43:20.919Z,17.20
2022-11-08T13:45:48.683Z,17.10
2022-11-08T13:48:25.434Z,17.00
2022-11-08T13:50:56.913Z,17.10
2022-11-08T13:53:43.153Z,16.90
2022-11-08T13:56:10.107Z,16.80
2022-11-08T13:58:42.411Z,16.90
2022-11-08T14:01:18.833Z,16.70
2022-11-08T14:03:51.513Z,16.40
2022-11-08T14:06:27.208Z,16.40
2022-11-08T14:09:20.750Z,16.20
2022-11-08T14:11:56.746Z,16.20
2022-11-08T14:14:45.017Z,16.00
2022-11-08T14:17:40.918Z,15.90
2022-11-08T14:20:43.379Z,15.80
2022-11-08T14:23:20.125Z,15.90
2022-11-08T14:25:51.587Z,15.80
2022-11-08T14:28:30.597Z,15.80
2022-11-08T14:30:59.216Z,15.80
2022-11-08T14:33:28.723Z,15.80
2022-11-08T14:35:58.727Z,15.70
2022-11-08T14:38:27.393Z,15.60
2022-11-08T14:40:58.632Z,15.60
2022-11-08T14:43:37.361Z,15.50
2022-11-08T14:46:28.412Z,15.20
2022-11-08T14:48:59.530Z,15.00
2022-11-08T14:51:26.709Z,14.80
2022-11-08T14:53:55.194Z,14.70
2022-11-08T14:56:27.299Z,14.60
2022-11-08T14:58:55.873Z,14.50
2022-11-08T15:01:25.655Z,14.40
2022-11-08T15:03:58.989Z,14.30
2022-11-08T15:06:36.173Z,14.20
2022-11-08T15:09:10.723Z,14.10
2022-11-08T15:11:41.173Z,14.00
2022-11-08T15:14:11.866Z,13.90
2022-11-08T15:16:44.345Z,13.80
2022-11-08T15:19:58.750Z,13.70
2022-11-08T15:22:37.475Z,13.60
2022-11-08T15:25:35.523Z,13.50
2022-11-08T15:28:25.918Z,13.40
2022-11-08T15:31:04.537Z,13.30
2022-11-08T15:33:34.273Z,13.30
2022-11-08T15:36:25.155Z,13.20
2022-11-08T15:38:52.060Z,13.00
2022-11-08T15:41:33.654Z,12.90
2022-11-08T15:44:23.865Z,12.90
2022-11-08T15:46:52.064Z,12.90
2022-11-08T15:49:23.436Z,12.80
2022-11-08T15:51:52.256Z,12.80
2022-11-08T15:54:29.334Z,12.70
2022-11-08T15:56:56.910Z,12.60
2022-11-08T15:59:27.979Z,12.60
2022-11-08T16:02:00.601Z,12.50
2022-11-08T16:04:29.149Z,12.50
2022-11-08T16:09:38.229Z,12.50
2022-11-08T16:12:05.385Z,12.40
2022-11-08T16:14:32.431Z,12.40
2022-11-08T16:16:59.500Z,12.30
2022-11-08T16:19:29.284Z,12.30
2022-11-08T16:21:57.134Z,12.20
2022-11-08T16:24:26.554Z,12.20
2022-11-08T16:26:53.474Z,12.10
2022-11-08T16:29:23.529Z,12.10
2022-11-08T16:31:51.399Z,12.00
2022-11-08T16:34:19.468Z,12.00
2022-11-08T16:36:48.334Z,11.90
2022-11-08T16:39:27.456Z,11.90
2022-11-08T16:41:54.471Z,11.90
2022-11-08T16:44:23.178Z,11.90
2022-11-08T16:46:53.058Z,11.90
2022-11-08T16:49:24.776Z,11.90
2022-11-08T16:51:51.736Z,11.90
2022-11-08T16:54:23.941Z,11.80
2022-11-08T16:56:51.701Z,11.80
2022-11-08T16:59:18.770Z,11.70
2022-11-08T17:01:47.892Z,11.70
2022-11-08T17:04:14.755Z,11.70
2022-11-08T17:06:41.869Z,11.70
2022-11-08T17:09:10.493Z,11.70
2022-11-08T17:11:40.886Z,11.60
2022-11-08T17:14:12.256Z,11.60
2022-11-08T17:16:42.358Z,11.50
2022-11-08T17:19:09.394Z,11.60
2022-11-08T17:21:45.153Z,11.50
2022-11-08T17:24:21.648Z,11.50
2022-11-08T17:26:51.990Z,11.50
2022-11-08T17:29:25.079Z,11.40
2022-11-08T17:31:57.723Z,11.30
2022-11-08T17:34:40.190Z,11.30
2022-11-08T17:37:07.190Z,11.30
2022-11-08T17:39:34.127Z,11.30
2022-11-08T17:42:01.091Z,11.20
2022-11-08T17:44:32.194Z,11.20
2022-11-08T17:47:05.660Z,11.20
2022-11-08T17:49:32.809Z,11.30
2022-11-08T17:52:00.358Z,11.30
2022-11-08T17:54:27.421Z,11.20
2022-11-08T17:56:54.492Z,11.10
2022-11-08T17:59:21.917Z,11.10
2022-11-08T18:01:49.627Z,11.00
2022-11-08T18:04:23.050Z,11.10
2022-11-08T18:07:02.474Z,11.10
2022-11-08T18:09:41.822Z,11.00
2022-11-08T18:12:12.259Z,11.00
2022-11-08T18:14:45.276Z,11.00
2022-11-08T18:17:18.449Z,11.00
2022-11-08T18:19:50.546Z,10.90
2022-11-08T18:22:23.671Z,10.80
2022-11-08T18:24:59.851Z,10.70
2022-11-08T18:27:29.768Z,10.60
2022-11-08T18:30:00.094Z,10.60
2022-11-08T18:32:27.033Z,10.60
2022-11-08T18:34:53.993Z,10.70
2022-11-08T18:37:20.857Z,10.70
2022-11-08T18:39:47.869Z,10.60
2022-11-08T18:42:14.812Z,10.60
2022-11-08T18:44:41.951Z,10.50
2022-11-08T18:47:18.069Z,10.50
2022-11-08T18:49:45.480Z,10.50
2022-11-08T18:52:13.369Z,10.30
2022-11-08T18:54:43.374Z,10.30
2022-11-08T18:57:11.081Z,10.30
2022-11-08T18:59:38.059Z,10.20
2022-11-08T19:02:06.380Z,10.20
2022-11-08T19:04:33.384Z,10.20
2022-11-08T19:07:14.879Z,10.20
2022-11-08T19:09:45.928Z,10.10
2022-11-08T19:12:13.059Z,10.20
2022-11-08T19:14:40.281Z,10.10
2022-11-08T19:17:07.914Z,10.10
2022-11-08T19:19:37.247Z,10.10
2022-11-08T19:22:06.497Z,10.10
2022-11-08T19:24:33.718Z,10.00
2022-11-08T19:27:00.795Z,10.00
2022-11-08T19:29:28.307Z,10.00
2022-11-08T19:31:56.214Z,10.00
2022-11-08T19:34:26.879Z,10.00
2022-11-08T19:36:56.012Z,9.90
2022-11-08T19:39:24.778Z,9.90
2022-11-08T19:41:54.869Z,10.00
2022-11-08T19:44:21.955Z,9.90
2022-11-08T19:46:49.105Z,9.90
2022-11-08T19:49:25.492Z,9.80
2022-11-08T19:54:36.408Z,9.80
2022-11-08T19:57:05.132Z,9.70
2022-11-08T19:59:33.570Z,9.70
2022-11-08T20:02:00.681Z,9.70
2022-11-08T20:04:27.978Z,9.60
2022-11-08T20:06:55.562Z,9.60
2022-11-08T20:09:35.829Z,9.60
2022-11-08T20:14:58.482Z,9.60
2022-11-08T20:17:37.975Z,9.50
2022-11-08T20:20:05.934Z,9.50
2022-11-08T20:39:57.582Z,9.40
2022-11-08T20:42:35.982Z,9.40
2022-11-08T20:45:03.227Z,9.30
2022-11-08T20:47:30.949Z,9.40
2022-11-08T20:49:58.581Z,9.30
2022-11-08T20:52:26.999Z,9.30
2022-11-08T20:54:54.522Z,9.20
2022-11-08T21:03:19.253Z,9.20
2022-11-08T21:05:59.626Z,9.20
2022-11-08T21:11:18.894Z,9.10
2022-11-08T21:13:46.750Z,9.20
2022-11-08T21:16:29.412Z,9.10
2022-11-08T21:18:58.475Z,9.00
2022-11-08T21:21:25.895Z,9.10
2022-11-08T21:23:54.472Z,9.00
2022-11-08T21:26:22.604Z,9.00
2022-11-08T21:28:49.707Z,9.00
2022-11-08T21:31:17.170Z,9.00
2022-11-08T21:33:50.750Z,8.90
2022-11-08T21:36:18.564Z,8.90
2022-11-08T21:38:51.402Z,8.90
2022-11-08T21:41:18.813Z,8.90
2022-11-08T21:43:47.614Z,8.90
2022-11-08T21:46:15.532Z,8.90
2022-11-08T21:48:45.732Z,8.90
2022-11-08T21:51:13.456Z,8.90
2022-11-08T21:53:53.759Z,8.90
2022-11-08T21:56:26.560Z,8.80
2022-11-08T21:58:56.756Z,8.80
2022-11-08T22:01:28.897Z,8.80
2022-11-08T22:03:58.611Z,8.80
2022-11-08T22:06:26.077Z,8.80
2022-11-08T22:08:53.769Z,8.80
2022-11-08T22:11:21.227Z,8.70
2022-11-08T22:16:43.923Z,8.70
2022-11-08T22:22:44.817Z,8.70
2022-11-08T22:31:45.991Z,8.80
2022-11-08T22:37:39.703Z,8.60
2022-11-08T22:41:06.181Z,8.70
2022-11-08T22:43:34.955Z,8.60
2022-11-08T22:46:02.216Z,8.70
2022-11-08T22:48:29.374Z,8.70
2022-11-08T22:50:56.365Z,8.50
2022-11-08T22:53:23.671Z,8.60
2022-11-08T22:55:50.735Z,8.50
2022-11-08T22:58:17.922Z,8.40
2022-11-08T23:00:44.886Z,8.30
2022-11-08T23:03:12.274Z,8.20
2022-11-08T23:05:39.471Z,8.30
2022-11-08T23:08:06.771Z,8.10
2022-11-08T23:10:59.471Z,8.10
2022-11-08T23:13:45.372Z,8.20
2022-11-08T23:16:30.860Z,8.20
2022-11-08T23:19:17.363Z,8.30
2022-11-08T23:22:02.710Z,8.30
2022-11-08T23:24:32.561Z,8.20
2022-11-08T23:27:19.719Z,8.10
2022-11-08T23:30:05.921Z,8.10
2022-11-08T23:32:33.664Z,8.10
2022-11-08T23:35:00.817Z,8.00
2022-11-08T23:37:27.933Z,8.10
2022-11-08T23:40:13.452Z,8.10
2022-11-08T23:42:59.443Z,8.10
2022-11-08T23:45:26.504Z,8.10
2022-11-08T23:47:53.623Z,8.00
2022-11-08T23:50:20.881Z,8.00
2022-11-08T23:52:47.826Z,8.00
2022-11-08T23:55:14.840Z,7.90
2022-11-08T23:57:42.028Z,7.90
